Time;durP1;ratioP1;P1;durP2;ratioP2;P2;SDS_P1;SDS_P2;PMS_P1;PMS_P2;Temp;Humidity;BMP_temperature;BMP_pressure;BME280_temperature;BME280_humidity;BME280_pressure;Samples;Min_cycle;Max_cycle;Signal;HPM_P1;HPM_P2
2024/04/24 00:01:17;;;;;;;4.72;3.42;;;;;;;7.71;41.83;99937.63;11027529;26;20024;-58
2024/04/24 00:06:19;;;;;;;7.25;2.83;;;;;;;7.74;41.83;99929.28;11016970;26;20391;-58
2024/04/24 00:11:23;;;;;;;5.85;3.75;;;;;;;7.85;42.10;99906.69;11015816;26;20557;-58
2024/04/24 00:16:25;;;;;;;7.18;4.30;;;;;;;7.88;42.35;99905.53;11021803;26;20448;-59
2024/04/24 00:21:27;;;;;;;5.60;3.42;;;;;;;7.84;42.67;99888.13;11018859;26;20010;-59
2024/04/24 00:26:29;;;;;;;8.50;4.18;;;;;;;7.84;42.76;99880.94;11022414;26;20417;-59
2024/04/24 00:31:30;;;;;;;6.07;4.80;;;;;;;7.76;43.16;99870.28;11020662;26;20016;-58
2024/04/24 00:36:32;;;;;;;8.88;4.88;;;;;;;7.66;43.47;99849.03;11014044;26;20461;-59
2024/04/24 00:41:33;;;;;;;7.10;5.00;;;;;;;7.75;43.47;99858.72;11018851;26;20077;-58
2024/04/24 00:46:36;;;;;;;9.98;5.90;;;;;;;7.89;43.12;99856.34;11017982;26;20001;-58
2024/04/24 00:51:39;;;;;;;9.30;5.13;;;;;;;8.08;43.05;99852.47;11018220;26;20139;-58
2024/04/24 00:56:41;;;;;;;7.82;4.85;;;;;;;8.23;42.90;99836.50;11013481;26;20020;-59
2024/04/24 01:01:43;;;;;;;9.88;4.85;;;;;;;8.44;42.60;99839.44;11017478;26;20079;-56
2024/04/24 01:06:44;;;;;;;6.32;4.97;;;;;;;8.54;42.36;99828.53;11023008;26;20008;-56
2024/04/24 01:11:49;;;;;;;9.00;4.72;;;;;;;8.61;42.37;99821.47;11000049;26;20424;-58
2024/04/24 01:16:51;;;;;;;10.27;5.47;;;;;;;8.61;42.39;99813.41;11020214;26;20005;-60
2024/04/24 01:22:15;;;;;;;9.45;5.60;;;;;;;8.61;42.58;99804.53;11013765;26;20033;-60
2024/04/24 01:27:16;;;;;;;8.52;5.93;;;;;;;8.62;42.66;99799.00;11020483;26;20410;-60
2024/04/24 01:32:18;;;;;;;8.45;5.28;;;;;;;8.76;42.27;99796.56;11024999;26;20009;-59
2024/04/24 01:37:20;;;;;;;9.55;5.47;;;;;;;8.79;42.11;99797.06;11017593;26;20090;-59
2024/04/24 01:42:21;;;;;;;10.68;5.75;;;;;;;8.82;42.21;99799.38;11015492;26;20001;-60
2024/04/24 01:47:23;;;;;;;6.57;4.82;;;;;;;8.99;42.02;99788.53;11020431;26;20532;-59
2024/04/24 01:52:24;;;;;;;6.78;5.50;;;;;;;9.08;42.71;99782.09;11012588;26;20021;-60
2024/04/24 01:57:26;;;;;;;8.65;5.53;;;;;;;9.09;42.67;99771.19;11014007;26;20461;-59
2024/04/24 02:02:27;;;;;;;6.68;5.05;;;;;;;9.06;42.99;99766.22;11020951;26;20450;-59
2024/04/24 02:07:29;;;;;;;8.50;4.78;;;;;;;8.97;43.10;99748.50;11019790;26;20001;-59
2024/04/24 02:12:30;;;;;;;6.45;4.57;;;;;;;8.87;43.42;99747.94;11004118;26;20009;-60
2024/04/24 02:17:32;;;;;;;7.13;5.05;;;;;;;8.78;43.31;99749.81;11012646;26;20020;-59
2024/04/24 02:22:34;;;;;;;7.05;4.30;;;;;;;8.65;43.55;99749.56;11008276;26;20016;-59
2024/04/24 02:27:38;;;;;;;6.13;4.88;;;;;;;8.67;43.19;99755.63;11010945;26;20016;-59
2024/04/24 02:32:39;;;;;;;6.63;4.13;;;;;;;8.47;43.97;99749.88;11019001;26;20020;-59
2024/04/24 02:37:41;;;;;;;6.35;4.57;;;;;;;8.44;43.96;99745.72;11016632;26;20017;-60
2024/04/24 02:42:43;;;;;;;5.85;3.70;;;;;;;8.40;43.86;99739.00;11017701;26;20052;-60
2024/04/24 02:47:44;;;;;;;6.47;4.20;;;;;;;8.39;44.13;99729.28;11027370;26;20020;-57
2024/04/24 02:52:46;;;;;;;7.25;4.53;;;;;;;8.39;44.16;99731.97;11024528;26;20045;-59
2024/04/24 02:57:48;;;;;;;8.73;4.57;;;;;;;8.36;44.47;99716.28;11021090;26;20370;-58
2024/04/24 03:02:49;;;;;;;8.70;4.45;;;;;;;8.31;44.70;99715.97;11015561;26;20083;-58
2024/04/24 03:07:51;;;;;;;8.68;4.95;;;;;;;8.20;44.93;99714.53;11022645;26;20016;-59
2024/04/24 03:12:52;;;;;;;8.05;5.18;;;;;;;8.23;45.10;99722.19;11020680;26;20367;-59
2024/04/24 03:17:54;;;;;;;7.55;4.90;;;;;;;8.24;45.44;99717.69;11023763;26;20012;-59
2024/04/24 03:22:56;;;;;;;9.70;5.28;;;;;;;8.16;45.66;99715.06;11015761;26;20033;-60
2024/04/24 03:27:57;;;;;;;6.68;4.53;;;;;;;8.23;45.46;99716.00;11019334;26;20005;-59
2024/04/24 03:32:59;;;;;;;9.00;4.45;;;;;;;8.23;45.74;99699.94;11017909;26;20898;-60
2024/04/24 03:38:01;;;;;;;9.80;5.05;;;;;;;8.21;45.85;99697.44;11017736;26;20015;-57
2024/04/24 03:43:02;;;;;;;6.90;4.50;;;;;;;8.30;45.79;99690.22;11019604;26;20590;-57
2024/04/24 03:48:05;;;;;;;8.10;5.25;;;;;;;8.18;46.28;99688.97;11015110;26;20473;-57
2024/04/24 03:53:06;;;;;;;8.90;5.55;;;;;;;8.11;46.58;99684.28;11022265;26;20017;-57
2024/04/24 03:58:08;;;;;;;9.40;5.00;;;;;;;8.12;46.80;99698.53;11020866;26;20353;-58
2024/04/24 04:03:09;;;;;;;8.60;5.00;;;;;;;8.08;46.98;99694.53;11015878;26;20449;-59
2024/04/24 04:08:11;;;;;;;9.45;4.90;;;;;;;8.01;47.35;99686.34;11024827;26;20043;-59
2024/04/24 04:13:13;;;;;;;8.30;5.22;;;;;;;8.07;47.50;99682.16;11017146;26;20009;-68
2024/04/24 04:18:15;;;;;;;5.82;4.30;;;;;;;8.19;47.39;99686.06;11017537;26;20441;-67
2024/04/24 04:23:17;;;;;;;8.90;5.00;;;;;;;8.12;48.12;99677.94;11024474;26;20108;-61
2024/04/24 04:28:18;;;;;;;8.77;4.88;;;;;;;8.08;48.33;99679.31;11020518;26;20079;-59
2024/04/24 04:33:20;;;;;;;9.23;4.95;;;;;;;8.02;48.99;99681.84;11020795;26;20759;-60
2024/04/24 04:38:21;;;;;;;5.47;3.65;;;;;;;8.08;49.29;99684.66;10995133;26;20838;-60
2024/04/24 04:43:23;;;;;;;7.43;3.55;;;;;;;8.19;49.16;99674.53;11018154;26;20002;-60
2024/04/24 04:48:25;;;;;;;5.80;3.40;;;;;;;8.29;49.29;99676.00;11011913;26;20039;-60
2024/04/24 04:53:26;;;;;;;8.82;4.43;;;;;;;8.31;49.44;99678.47;11018494;26;20020;-60
2024/04/24 04:58:28;;;;;;;7.50;4.95;;;;;;;8.34;49.73;99664.75;11015836;26;20056;-60
2024/04/24 05:03:29;;;;;;;7.20;4.47;;;;;;;8.43;49.72;99666.38;11010884;26;20013;-62
2024/04/24 05:08:31;;;;;;;10.27;4.55;;;;;;;8.40;49.75;99658.66;11013693;26;20005;-62
2024/04/24 05:13:32;;;;;;;6.15;4.25;;;;;;;8.23;50.46;99654.44;11012339;26;20020;-61
2024/04/24 05:18:34;;;;;;;7.90;4.38;;;;;;;8.40;50.20;99647.97;11014469;26;20344;-61
2024/04/24 05:23:36;;;;;;;8.27;4.38;;;;;;;8.43;50.13;99639.59;11018278;26;20009;-62
2024/04/24 05:33:59;;;;;;;10.20;4.35;;;;;;;8.48;50.32;99644.41;11019899;26;20044;-62
2024/04/24 05:39:01;;;;;;;6.22;4.10;;;;;;;8.59;50.00;99645.81;11021566;26;20075;-62
2024/04/24 05:44:02;;;;;;;5.95;3.85;;;;;;;8.36;50.75;99648.50;11016226;26;20082;-61
2024/04/24 05:49:04;;;;;;;7.82;4.25;;;;;;;8.21;51.44;99643.06;11017232;26;20077;-61
2024/04/24 05:54:05;;;;;;;4.97;3.53;;;;;;;8.24;51.33;99642.72;11007441;26;20013;-61
2024/04/24 05:59:07;;;;;;;12.40;4.97;;;;;;;8.20;51.59;99636.91;11013673;26;20018;-62
2024/04/24 06:04:08;;;;;;;6.53;3.60;;;;;;;8.03;52.18;99635.34;11014565;26;20009;-61
2024/04/24 06:09:10;;;;;;;13.15;4.15;;;;;;;8.16;52.12;99621.38;11017059;26;20002;-62
2024/04/24 06:14:11;;;;;;;7.68;3.30;;;;;;;8.33;51.84;99617.53;11019660;26;20044;-62
2024/04/24 06:19:13;;;;;;;5.72;2.42;;;;;;;8.27;51.99;99621.78;11019952;26;20612;-61
2024/04/24 06:24:14;;;;;;;3.63;1.98;;;;;;;8.28;52.06;99622.63;11015414;26;20020;-61
2024/04/24 06:29:16;;;;;;;4.97;1.88;;;;;;;8.32;51.97;99629.28;11020196;26;20012;-61
2024/04/24 06:34:18;;;;;;;5.72;1.90;;;;;;;8.51;51.44;99617.25;11024506;26;20045;-62
2024/04/24 06:39:19;;;;;;;5.47;1.23;;;;;;;8.84;50.81;99599.03;11023514;26;20009;-62
2024/04/24 06:44:21;;;;;;;5.07;1.30;;;;;;;9.00;50.08;99598.00;11019876;26;20348;-62
2024/04/24 06:49:22;;;;;;;9.43;2.50;;;;;;;9.46;49.62;99603.19;11024464;26;20013;-60
2024/04/24 06:54:24;;;;;;;9.02;3.45;;;;;;;9.78;49.35;99600.25;11026590;26;20039;-58
2024/04/24 06:59:26;;;;;;;6.38;3.15;;;;;;;10.17;48.50;99590.94;11033791;26;20028;-57
2024/04/24 07:04:27;;;;;;;6.05;2.10;;;;;;;10.16;48.93;99587.44;11020879;26;20036;-58
2024/04/24 07:09:29;;;;;;;4.47;2.33;;;;;;;10.31;48.96;99590.09;11028226;26;20016;-60
2024/04/24 07:14:30;;;;;;;6.63;2.67;;;;;;;10.40;48.53;99586.22;11020720;26;20827;-60
2024/04/24 07:19:32;;;;;;;7.88;2.58;;;;;;;10.75;48.21;99580.09;11023601;26;20005;-60
2024/04/24 07:24:33;;;;;;;6.60;2.00;;;;;;;10.81;47.64;99568.56;11015063;26;20005;-61
2024/04/24 07:29:35;;;;;;;1.77;1.27;;;;;;;10.66;47.45;99572.19;11022269;26;20005;-60
2024/04/24 07:34:37;;;;;;;0.90;0.50;;;;;;;10.07;48.10;99576.00;11019628;26;20013;-60
2024/04/24 07:39:38;;;;;;;2.45;0.85;;;;;;;10.05;47.66;99569.97;11022714;26;19997;-61
2024/04/24 07:44:43;;;;;;;2.05;0.50;;;;;;;10.17;47.31;99574.81;11015949;26;20005;-61
2024/04/24 07:49:44;;;;;;;2.53;0.88;;;;;;;10.30;47.14;99572.28;11019524;26;20516;-61
2024/04/24 07:54:46;;;;;;;2.03;0.77;;;;;;;10.41;47.01;99563.72;11025408;26;20024;-60
2024/04/24 07:59:48;;;;;;;2.25;0.70;;;;;;;10.59;46.91;99560.53;11016752;26;21294;-69
2024/04/24 08:04:50;;;;;;;1.33;1.23;;;;;;;10.53;46.53;99566.69;11023523;26;20008;-68
2024/04/24 08:09:51;;;;;;;5.60;0.77;;;;;;;10.60;46.33;99556.00;11017324;26;20362;-69
2024/04/24 08:14:53;;;;;;;1.27;0.75;;;;;;;10.68;46.09;99550.47;11014309;26;20028;-69
2024/04/24 08:19:54;;;;;;;1.80;0.30;;;;;;;10.74;46.16;99551.53;11009423;26;20016;-68
2024/04/24 08:24:56;;;;;;;2.70;0.30;;;;;;;10.60;46.05;99572.13;11012043;26;20001;-68
2024/04/24 08:29:58;;;;;;;1.48;0.43;;;;;;;10.63;45.88;99564.50;11021927;26;20005;-66
2024/04/24 08:34:59;;;;;;;2.03;0.50;;;;;;;10.77;46.08;99553.84;11023285;26;20107;-68
2024/04/24 08:40:01;;;;;;;1.35;0.60;;;;;;;11.11;45.57;99556.50;11021625;26;20024;-68
2024/04/24 08:45:03;;;;;;;2.85;0.55;;;;;;;11.21;44.90;99561.53;11025198;26;20015;-69
2024/04/24 08:50:05;;;;;;;0.85;0.40;;;;;;;11.07;44.90;99557.13;11017332;26;20016;-69
2024/04/24 08:55:08;;;;;;;2.42;0.60;;;;;;;11.02;44.76;99554.19;11022380;26;20023;-67
2024/04/24 09:00:11;;;;;;;0.85;0.40;;;;;;;11.03;44.46;99542.41;11030920;26;20009;-71
2024/04/24 09:05:14;;;;;;;1.02;0.60;;;;;;;10.91;44.97;99539.44;11022382;26;20005;-67
2024/04/24 09:10:16;;;;;;;0.82;0.35;;;;;;;10.99;44.79;99541.97;11020301;26;20000;-59
2024/04/24 09:15:21;;;;;;;1.67;0.55;;;;;;;11.18;45.03;99535.03;11024399;26;20011;-58
2024/04/24 09:20:24;;;;;;;2.10;0.43;;;;;;;11.44;44.31;99517.34;11023171;26;20017;-58
2024/04/24 09:25:26;;;;;;;2.55;0.70;;;;;;;11.54;44.83;99512.41;11021509;26;20045;-62
2024/04/24 09:30:29;;;;;;;2.75;0.47;;;;;;;11.99;43.79;99504.63;11029381;26;20086;-61
2024/04/24 09:35:31;;;;;;;4.43;0.40;;;;;;;11.95;43.60;99502.53;11028548;26;20061;-59
2024/04/24 09:40:33;;;;;;;3.47;0.50;;;;;;;11.82;43.80;99497.94;11023393;26;20408;-60
2024/04/24 09:45:35;;;;;;;1.10;0.40;;;;;;;12.24;43.00;99496.78;11031313;26;20009;-58
2024/04/24 09:50:39;;;;;;;1.35;0.70;;;;;;;12.59;42.28;99474.94;11033711;26;20021;-59
2024/04/24 09:55:44;;;;;;;1.83;0.40;;;;;;;13.14;41.55;99474.56;11032153;26;20039;-59
2024/04/24 10:00:46;;;;;;;5.00;0.50;;;;;;;13.62;40.72;99486.78;11036313;26;20021;-59
2024/04/24 10:05:52;;;;;;;0.35;0.10;;;;;;;13.24;40.56;99485.72;11031025;26;20001;-57
2024/04/24 10:11:00;;;;;;;0.10;0.10;;;;;;;13.14;39.63;99458.38;11024439;26;20009;-60
2024/04/24 10:16:04;;;;;;;1.40;0.20;;;;;;;13.40;39.51;99457.41;10999796;26;20005;-59
2024/04/24 10:21:08;;;;;;;1.30;0.20;;;;;;;13.41;38.96;99479.88;11025614;26;19997;-58
2024/04/24 10:26:11;;;;;;;0.40;0.10;;;;;;;13.76;37.54;99465.91;11030857;26;20005;-59
2024/04/24 10:31:14;;;;;;;0.40;0.00;;;;;;;13.78;37.67;99459.25;11032413;26;20005;-60
2024/04/24 10:36:15;;;;;;;1.77;0.10;;;;;;;13.75;36.40;99464.28;11026030;26;20017;-61
2024/04/24 10:41:17;;;;;;;0.47;0.20;;;;;;;13.40;36.36;99464.69;11018999;26;20335;-59
2024/04/24 10:46:20;;;;;;;1.33;0.30;;;;;;;13.54;36.62;99463.56;10971609;21;20006;-58
2024/04/24 10:51:35;;;;;;;0.50;0.22;;;;;;;13.02;37.56;99460.91;10879182;27;20007;-61
2024/04/24 10:56:56;;;;;;;2.50;0.30;;;;;;;12.67;38.03;99468.50;10864306;27;20058;-62
2024/04/24 11:02:19;;;;;;;1.73;0.32;;;;;;;12.36;38.33;99461.09;10879078;27;20475;-59
2024/04/24 11:07:20;;;;;;;1.35;0.40;;;;;;;11.92;39.17;99463.38;10874083;27;20024;-61
2024/04/24 11:12:40;;;;;;;1.92;0.30;;;;;;;12.23;40.26;99470.84;10876144;27;20038;-59
2024/04/24 11:17:42;;;;;;;1.30;0.10;;;;;;;11.45;41.65;99476.78;10853998;27;20007;-61
2024/04/24 11:22:44;;;;;;;0.30;0.10;;;;;;;10.65;42.90;99486.38;10810701;27;20008;-62
2024/04/24 11:27:46;;;;;;;0.40;0.00;;;;;;;10.24;43.58;99477.16;10842838;27;20017;-58
2024/04/24 11:32:50;;;;;;;0.90;0.10;;;;;;;10.05;44.78;99477.84;10895178;27;20010;-68
2024/04/24 11:37:53;;;;;;;0.20;0.20;;;;;;;10.26;43.67;99461.69;10833178;27;20002;-67
2024/04/24 11:42:55;;;;;;;0.10;0.03;;;;;;;11.08;42.43;99454.72;10874889;27;20914;-67
2024/04/24 11:47:57;;;;;;;0.35;0.00;;;;;;;14.14;36.99;99419.06;10875897;27;20002;-64
2024/04/24 11:52:59;;;;;;;1.48;0.57;;;;;;;15.30;35.17;99405.66;10852273;27;20013;-68
2024/04/24 11:58:09;;;;;;;2.50;0.10;;;;;;;19.71;29.46;99372.66;10850394;27;20017;-66
2024/04/24 12:03:12;;;;;;;0.85;0.20;;;;;;;23.02;25.69;99364.44;10863168;27;19999;-65
2024/04/24 12:08:15;;;;;;;2.55;0.20;;;;;;;25.07;23.93;99365.25;10885086;27;20006;-67
2024/04/24 12:13:17;;;;;;;0.30;0.10;;;;;;;20.24;28.99;99384.53;10833359;27;20023;-69
2024/04/24 12:18:19;;;;;;;1.65;0.10;;;;;;;18.36;30.84;99385.84;10846347;27;20022;-68
2024/04/24 12:23:26;;;;;;;1.35;0.28;;;;;;;16.97;31.85;99387.31;10892414;27;20002;-63
2024/04/24 12:28:28;;;;;;;2.28;0.15;;;;;;;16.50;32.18;99376.56;10894280;27;20050;-66
2024/04/24 12:33:30;;;;;;;1.33;0.00;;;;;;;15.42;33.53;99384.84;10899747;27;20448;-68
2024/04/24 12:38:33;;;;;;;0.60;0.03;;;;;;;15.72;31.96;99379.41;10893836;27;20087;-69
2024/04/24 12:43:35;;;;;;;2.08;0.22;;;;;;;15.53;31.92;99384.06;10884171;27;20010;-62
2024/04/24 12:48:36;;;;;;;1.45;0.08;;;;;;;16.38;30.43;99377.41;10874737;27;20015;-61
2024/04/24 12:53:41;;;;;;;0.80;0.10;;;;;;;20.07;25.98;99335.56;10869854;27;20013;-61
2024/04/24 12:58:43;;;;;;;2.28;0.10;;;;;;;21.16;24.73;99340.38;10798760;27;20007;-62
2024/04/24 13:03:44;;;;;;;0.10;0.10;;;;;;;20.23;26.06;99333.75;10837746;27;20495;-62
2024/04/24 13:08:46;;;;;;;1.60;0.10;;;;;;;20.77;25.79;99330.72;10865389;27;20054;-62
2024/04/24 13:13:48;;;;;;;1.42;0.30;;;;;;;20.72;26.17;99340.81;10860967;27;20007;-62
2024/04/24 13:18:49;;;;;;;0.98;0.20;;;;;;;21.30;25.71;99313.31;10868011;27;20337;-62
2024/04/24 13:23:51;;;;;;;1.80;0.20;;;;;;;21.61;25.41;99305.16;10867418;27;20018;-62
2024/04/24 13:28:52;;;;;;;2.80;0.35;;;;;;;21.64;25.21;99312.81;10862398;27;20017;-64
2024/04/24 13:33:54;;;;;;;4.55;0.30;;;;;;;20.85;25.58;99334.00;10865527;27;20003;-61
2024/04/24 13:38:56;;;;;;;1.85;0.40;;;;;;;17.89;28.70;99325.59;10866446;27;20018;-60
2024/04/24 13:43:58;;;;;;;1.10;0.20;;;;;;;16.57;29.89;99337.38;10858019;27;20011;-60
2024/04/24 13:49:01;;;;;;;1.33;0.20;;;;;;;15.58;31.39;99337.31;10860327;27;20477;-60
2024/04/24 13:54:03;;;;;;;0.52;0.20;;;;;;;14.90;32.10;99331.25;10849292;27;20018;-58
2024/04/24 13:59:05;;;;;;;1.30;0.30;;;;;;;15.65;31.82;99319.88;10833778;27;19998;-59
2024/04/24 14:04:06;;;;;;;0.98;0.28;;;;;;;17.45;29.81;99302.63;10866377;27;20034;-58
2024/04/24 14:09:08;;;;;;;1.35;0.25;;;;;;;19.19;27.94;99290.44;10860146;27;20019;-58
2024/04/24 14:14:10;;;;;;;1.52;0.30;;;;;;;19.75;26.91;99292.00;10798867;27;20033;-58
2024/04/24 14:19:11;;;;;;;1.77;0.30;;;;;;;18.54;27.65;99302.25;10867725;27;20014;-59
2024/04/24 14:24:13;;;;;;;3.15;1.38;;;;;;;17.15;29.21;99304.84;10864199;27;20499;-59
2024/04/24 14:29:15;;;;;;;2.03;0.20;;;;;;;16.15;30.10;99307.78;10867029;27;20077;-61
2024/04/24 14:34:21;;;;;;;1.00;0.20;;;;;;;16.10;29.97;99302.22;10841340;27;20014;-59
2024/04/24 14:39:25;;;;;;;1.17;0.20;;;;;;;15.51;31.10;99304.09;10868997;27;20015;-59
2024/04/24 14:44:27;;;;;;;1.20;0.30;;;;;;;15.42;30.58;99284.66;10872418;27;20342;-59
2024/04/24 14:49:29;;;;;;;2.05;0.20;;;;;;;14.93;31.38;99289.38;10878766;27;20328;-58
2024/04/24 14:54:31;;;;;;;0.80;0.30;;;;;;;14.73;32.68;99292.38;10839212;27;20103;-59
2024/04/24 14:59:32;;;;;;;1.05;0.20;;;;;;;15.34;32.00;99283.09;10873423;27;20093;-57
2024/04/24 15:04:35;;;;;;;0.80;0.10;;;;;;;16.96;29.87;99267.06;10862946;27;20017;-60
2024/04/24 15:09:41;;;;;;;1.17;0.10;;;;;;;17.61;28.86;99246.63;10861621;27;20002;-61
2024/04/24 15:14:43;;;;;;;1.33;0.25;;;;;;;17.11;28.85;99254.78;10871675;27;20006;-61
2024/04/24 15:19:45;;;;;;;0.28;0.10;;;;;;;17.69;28.78;99239.09;10865581;27;20109;-61
2024/04/24 15:24:47;;;;;;;2.15;0.20;;;;;;;17.19;29.23;99247.06;10876429;27;20002;-61
2024/04/24 15:29:48;;;;;;;2.40;0.10;;;;;;;16.21;29.83;99254.44;10868265;27;20007;-61
2024/04/24 15:34:50;;;;;;;0.60;0.10;;;;;;;15.55;30.58;99267.34;10876903;27;20034;-61
2024/04/24 15:39:52;;;;;;;1.17;0.20;;;;;;;16.00;29.59;99264.88;10858916;27;20020;-61
2024/04/24 15:44:53;;;;;;;1.13;0.10;;;;;;;15.40;29.58;99260.53;10873472;26;20013;-61
2024/04/24 15:49:55;;;;;;;2.17;0.30;;;;;;;14.80;30.94;99271.47;10873569;27;20018;-60
2024/04/24 15:54:56;;;;;;;0.65;0.20;;;;;;;14.03;31.87;99272.00;10870981;27;20320;-61
2024/04/24 15:59:58;;;;;;;2.65;0.35;;;;;;;13.95;32.55;99264.19;10863714;27;19999;-61
2024/04/24 16:04:59;;;;;;;0.52;0.20;;;;;;;14.28;32.67;99266.50;10870528;27;20025;-61
2024/04/24 16:10:01;;;;;;;0.93;0.10;;;;;;;14.98;31.97;99257.84;10869396;27;20006;-62
2024/04/24 16:15:03;;;;;;;0.35;0.20;;;;;;;15.04;32.22;99261.53;10906802;27;19999;-64
2024/04/24 16:20:06;;;;;;;1.20;0.15;;;;;;;14.50;33.47;99261.44;10905669;27;20022;-62
2024/04/24 16:25:08;;;;;;;1.20;0.10;;;;;;;13.99;34.31;99270.78;10903678;27;20014;-69
2024/04/24 16:30:10;;;;;;;1.05;0.20;;;;;;;13.96;34.38;99282.88;10891220;27;19998;-62
2024/04/24 16:35:14;;;;;;;1.40;0.10;;;;;;;13.68;34.30;99273.41;10909354;27;20006;-63
2024/04/24 16:40:16;;;;;;;0.80;0.30;;;;;;;13.68;34.43;99268.00;10903809;27;20006;-60
2024/04/24 16:45:17;;;;;;;0.50;0.10;;;;;;;14.22;34.01;99257.44;10893260;27;20071;-60
2024/04/24 16:50:19;;;;;;;2.38;0.13;;;;;;;14.52;34.52;99263.94;10899816;27;20030;-70
2024/04/24 16:55:20;;;;;;;0.77;0.10;;;;;;;14.71;34.71;99273.69;10888175;27;20013;-66
2024/04/24 17:00:23;;;;;;;2.55;0.25;;;;;;;14.46;35.23;99288.09;10889106;27;20017;-70
2024/04/24 17:05:24;;;;;;;2.45;0.20;;;;;;;14.27;36.24;99287.28;10884297;27;20230;-69
2024/04/24 17:10:26;;;;;;;0.98;0.20;;;;;;;14.02;36.39;99300.91;10877106;27;19997;-67
2024/04/24 17:15:27;;;;;;;1.17;0.10;;;;;;;13.74;35.98;99306.78;10882218;27;19999;-60
2024/04/24 17:20:29;;;;;;;1.45;0.10;;;;;;;13.28;36.63;99318.78;10904355;27;20003;-60
2024/04/24 17:25:31;;;;;;;2.65;0.10;;;;;;;12.78;37.22;99313.31;10872085;27;20002;-59
2024/04/24 17:30:32;;;;;;;0.47;0.17;;;;;;;12.51;37.69;99324.22;10860821;27;20022;-61
2024/04/24 17:35:35;;;;;;;3.63;1.15;;;;;;;12.42;37.94;99331.72;10847563;27;19998;-61
2024/04/24 17:40:36;;;;;;;1.05;0.50;;;;;;;12.18;38.83;99332.41;10858707;27;20010;-61
2024/04/24 17:45:38;;;;;;;0.60;0.10;;;;;;;11.78;40.23;99341.34;10837136;27;20007;-61
2024/04/24 17:50:39;;;;;;;4.38;0.50;;;;;;;11.37;41.30;99337.00;10870480;27;20458;-62
2024/04/24 17:55:46;;;;;;;1.23;0.20;;;;;;;11.32;41.57;99361.84;10874642;27;20006;-61
2024/04/24 18:00:49;;;;;;;1.08;0.13;;;;;;;10.87;43.26;99355.34;10855205;27;20551;-62
2024/04/24 18:05:52;;;;;;;0.20;0.17;;;;;;;10.77;43.23;99362.97;10855466;27;20018;-61
2024/04/24 18:10:53;;;;;;;1.08;0.20;;;;;;;10.64;43.74;99364.59;10847064;27;20017;-62
2024/04/24 18:15:55;;;;;;;0.57;0.10;;;;;;;10.62;43.51;99363.94;10884055;27;20087;-61
2024/04/24 18:20:57;;;;;;;0.60;0.25;;;;;;;10.31;44.74;99370.63;10879935;27;20749;-61
2024/04/24 18:25:58;;;;;;;1.65;0.30;;;;;;;10.18;44.43;99365.16;10924895;26;20011;-60
2024/04/24 18:31:01;;;;;;;1.65;0.17;;;;;;;10.11;45.08;99377.69;10938554;26;20457;-60
2024/04/24 18:36:03;;;;;;;0.68;0.15;;;;;;;10.02;45.45;99374.34;10920603;26;20021;-58
2024/04/24 18:41:05;;;;;;;0.38;0.10;;;;;;;9.95;45.61;99376.16;10944593;26;20021;-58
2024/04/24 18:46:08;;;;;;;1.75;0.20;;;;;;;9.86;45.80;99380.03;10915440;26;20001;-58
2024/04/24 18:51:10;;;;;;;1.23;0.10;;;;;;;9.66;46.41;99391.44;10944485;26;20012;-58
2024/04/24 18:56:11;;;;;;;2.67;0.45;;;;;;;9.61;47.01;99385.00;10920622;26;20029;-58
2024/04/24 19:01:13;;;;;;;0.30;0.20;;;;;;;9.58;47.29;99382.69;10939239;26;20431;-59
2024/04/24 19:06:15;;;;;;;2.78;0.40;;;;;;;9.46;47.53;99385.91;10928892;26;20132;-59
2024/04/24 19:11:17;;;;;;;2.58;0.20;;;;;;;9.39;47.76;99378.81;10944663;26;20006;-58
2024/04/24 19:16:18;;;;;;;1.75;0.68;;;;;;;9.35;48.33;99380.22;10936804;26;20076;-58
2024/04/24 19:21:20;;;;;;;4.85;0.30;;;;;;;9.35;48.33;99396.31;10941832;26;20010;-58
2024/04/24 19:26:22;;;;;;;5.15;0.50;;;;;;;9.28;48.80;99388.19;10944164;26;20006;-58
2024/04/24 19:31:23;;;;;;;0.70;0.20;;;;;;;9.25;48.98;99396.63;10938123;26;20003;-58
2024/04/24 19:36:33;;;;;;;2.25;0.30;;;;;;;9.22;49.75;99416.63;10945091;26;20001;-58
2024/04/24 19:41:35;;;;;;;2.63;0.20;;;;;;;9.16;49.78;99406.63;10945164;26;20037;-58
2024/04/24 19:46:38;;;;;;;2.17;0.35;;;;;;;9.19;49.96;99406.25;10943576;26;20021;-58
2024/04/24 19:51:39;;;;;;;1.58;0.30;;;;;;;9.28;49.40;99415.00;10940217;26;20020;-58
2024/04/24 19:56:41;;;;;;;4.47;0.55;;;;;;;9.28;49.50;99410.50;10946596;26;20644;-58
2024/04/24 20:01:46;;;;;;;1.92;0.40;;;;;;;9.11;50.22;99419.78;10947862;26;19997;-58
2024/04/24 20:06:48;;;;;;;1.15;0.30;;;;;;;9.00;50.67;99434.50;10944849;26;20030;-58
2024/04/24 20:11:50;;;;;;;4.07;0.40;;;;;;;8.98;51.01;99425.00;10949476;26;20014;-58
2024/04/24 20:16:52;;;;;;;1.58;0.30;;;;;;;8.93;51.03;99430.94;10945202;26;20007;-58
2024/04/24 20:21:55;;;;;;;3.00;0.30;;;;;;;8.86;51.35;99422.78;10942907;26;20012;-58
2024/04/24 20:26:56;;;;;;;1.63;0.40;;;;;;;8.91;51.06;99424.94;10951423;26;20009;-58
2024/04/24 20:31:58;;;;;;;1.50;0.43;;;;;;;9.06;50.87;99423.06;10942437;26;20012;-58
2024/04/24 20:36:59;;;;;;;2.70;0.40;;;;;;;9.16;50.39;99429.94;10945491;26;20005;-58
2024/04/24 20:42:01;;;;;;;1.25;0.47;;;;;;;9.13;50.70;99423.13;10933649;26;20002;-58
2024/04/24 20:47:02;;;;;;;1.70;0.40;;;;;;;9.09;50.45;99437.91;10944457;26;20344;-60
2024/04/24 20:52:04;;;;;;;2.08;0.35;;;;;;;9.09;50.56;99422.66;10945535;26;19997;-59
2024/04/24 20:57:06;;;;;;;2.08;0.50;;;;;;;9.11;50.63;99417.13;10947769;26;20010;-58
2024/04/24 21:02:07;;;;;;;5.65;0.60;;;;;;;9.12;50.60;99424.13;10939147;26;20010;-58
2024/04/24 21:07:09;;;;;;;0.93;0.30;;;;;;;9.13;50.65;99418.56;10946620;26;20006;-58
2024/04/24 21:12:11;;;;;;;1.52;1.20;;;;;;;9.02;51.00;99429.78;10933589;26;20010;-58
2024/04/24 21:17:16;;;;;;;3.63;0.40;;;;;;;9.06;51.06;99428.41;10943161;26;20016;-58
2024/04/24 21:22:17;;;;;;;3.42;0.98;;;;;;;9.02;51.63;99434.31;10938326;26;20005;-58
2024/04/24 21:27:19;;;;;;;4.15;0.50;;;;;;;9.08;51.47;99442.47;10937413;26;20026;-58
2024/04/24 21:32:21;;;;;;;1.63;0.40;;;;;;;9.17;50.95;99435.13;10934086;26;20070;-58
2024/04/24 21:37:23;;;;;;;2.92;0.73;;;;;;;9.32;50.98;99435.91;10933365;26;20071;-58
2024/04/24 21:42:24;;;;;;;5.15;0.40;;;;;;;9.24;51.16;99428.00;10930716;26;20003;-58
2024/04/24 21:47:27;;;;;;;4.32;0.50;;;;;;;9.33;50.59;99426.00;10941953;26;20017;-58
2024/04/24 21:52:29;;;;;;;1.15;0.40;;;;;;;9.22;51.07;99431.84;10931185;26;20022;-58
2024/04/24 21:57:31;;;;;;;1.55;0.40;;;;;;;9.12;51.79;99424.97;10948688;26;20454;-58
2024/04/24 22:02:32;;;;;;;1.30;0.40;;;;;;;9.01;51.73;99435.34;10943321;26;20014;-59
2024/04/24 22:07:34;;;;;;;5.35;1.63;;;;;;;9.06;51.84;99449.00;10960795;26;20014;-59
2024/04/24 22:12:36;;;;;;;0.45;0.30;;;;;;;8.96;52.23;99449.31;10943275;26;20006;-59
2024/04/24 22:17:37;;;;;;;4.63;0.40;;;;;;;8.93;52.11;99444.34;10945982;26;20002;-58
2024/04/24 22:22:39;;;;;;;1.95;0.40;;;;;;;8.75;52.48;99444.72;10937765;26;20357;-58
2024/04/24 22:27:40;;;;;;;0.43;0.30;;;;;;;8.61;53.21;99456.28;10947792;26;20003;-59
2024/04/24 22:32:42;;;;;;;4.32;0.43;;;;;;;8.56;53.26;99446.13;10941050;26;20010;-58
2024/04/24 22:37:44;;;;;;;1.35;0.40;;;;;;;8.43;53.77;99445.94;10952343;26;20002;-58
2024/04/24 22:42:45;;;;;;;0.82;0.60;;;;;;;8.58;53.12;99449.44;10926907;26;20770;-59
2024/04/24 22:47:47;;;;;;;3.03;0.52;;;;;;;8.71;52.78;99438.09;10938313;26;20006;-59
2024/04/24 22:52:49;;;;;;;3.40;0.60;;;;;;;8.82;52.98;99434.09;10942847;26;20016;-59
2024/04/24 22:57:50;;;;;;;2.58;0.70;;;;;;;8.80;52.69;99431.59;10943523;26;20011;-59
2024/04/24 23:02:52;;;;;;;1.25;0.75;;;;;;;8.78;52.98;99430.94;10942183;26;20002;-58
2024/04/24 23:07:53;;;;;;;2.70;0.75;;;;;;;8.61;53.95;99440.19;10941030;26;20013;-58
2024/04/24 23:12:55;;;;;;;5.90;1.15;;;;;;;8.29;54.98;99434.16;10940452;26;20578;-58
2024/04/24 23:17:56;;;;;;;2.65;0.90;;;;;;;8.28;55.28;99440.56;10940706;26;20006;-60
2024/04/24 23:22:58;;;;;;;1.13;0.50;;;;;;;8.14;55.91;99436.84;10945346;26;20008;-60
2024/04/24 23:28:00;;;;;;;0.90;0.40;;;;;;;7.94;56.70;99441.91;10942090;26;20021;-59
2024/04/24 23:33:01;;;;;;;3.42;0.60;;;;;;;7.31;58.40;99439.38;10935517;26;19997;-58
2024/04/24 23:38:03;;;;;;;5.82;1.02;;;;;;;7.10;59.96;99447.19;10944480;26;20002;-58